Barra do Mendes, Brazil
Current Conditions -  °F | °C
As of 12:00 AM on Monday 24 Nov 2014 (Local Time) from SBPL Reporting Station
Clear Clear  
Wind Chill: 81°   Ceiling: Unl
Heat Index: 83°   Visibility: 6mi
Dew Point: 68°   Wind: 6mph
Humidity: 65%   Direction: 160°SSE
Pressure: 29.91"   Gusts: NA
Location:  11.81°S, 42.06°W
Report Text: SBPL 240300Z 16005KT CAVOK 27/20 Q1013
Loading
Personal Weather Stations






























Interactive Weather Map New forecast layout! Learn more

10-Day Weather Forecast

Advertisements
Track Severe Weather on mobile